Time;durP1;ratioP1;P1;durP2;ratioP2;P2;SDS_P1;SDS_P2;PMS_P1;PMS_P2;Temp;Humidity;BMP_temperature;BMP_pressure;BME280_temperature;BME280_humidity;BME280_pressure;Samples;Min_cycle;Max_cycle;Signal;HPM_P1;HPM_P2
2021/12/16 00:08:25;;;;;;;13.77;4.75;;;;;;;6.63;55.63;103084.00;4989183;28;20369;-68
2021/12/16 00:11:20;;;;;;;9.90;3.80;;;;;;;6.66;54.98;103076.22;4988775;28;20117;-67
2021/12/16 00:20:24;;;;;;;8.25;3.47;;;;;;;6.75;55.04;103086.72;4986946;28;20041;-65
2021/12/16 00:31:02;;;;;;;12.00;4.03;;;;;;;6.62;55.32;103106.53;4988688;28;20045;-67
2021/12/16 00:33:15;;;;;;;13.85;4.00;;;;;;;6.75;55.56;103112.72;4971184;28;20034;-67
2021/12/16 00:35:45;;;;;;;11.80;4.05;;;;;;;6.85;55.07;103103.31;4974807;28;20030;-66
2021/12/16 00:38:10;;;;;;;9.55;3.95;;;;;;;6.69;55.26;103113.53;4968549;28;20096;-67
2021/12/16 00:40:40;;;;;;;16.25;4.22;;;;;;;6.65;55.44;103106.56;4987953;28;20306;-67
2021/12/16 00:43:53;;;;;;;11.82;4.60;;;;;;;6.63;55.74;103107.41;4962828;28;20495;-67
2021/12/16 00:54:10;;;;;;;15.73;5.05;;;;;;;6.70;55.39;103098.81;4977140;28;20046;-67
2021/12/16 00:56:42;;;;;;;13.38;4.28;;;;;;;6.74;55.30;103090.19;4971400;28;20038;-67
2021/12/16 00:59:10;;;;;;;20.20;4.90;;;;;;;6.29;56.61;103100.03;4978007;28;20026;-71
2021/12/16 01:01:45;;;;;;;20.77;5.40;;;;;;;6.59;55.67;103105.59;4975097;28;20062;-70
2021/12/16 01:40:31;;;;;;;12.90;4.72;;;;;;;7.07;55.50;103156.44;4985367;28;20085;-69
2021/12/16 01:51:13;;;;;;;13.13;4.20;;;;;;;7.25;55.05;103161.84;4988651;28;20383;-66
2021/12/16 01:57:13;;;;;;;12.50;4.72;;;;;;;6.93;55.91;103148.44;4972094;28;20830;-65
2021/12/16 01:59:16;;;;;;;21.83;6.82;;;;;;;6.72;56.22;103143.88;4966609;28;20042;-65
2021/12/16 02:01:41;;;;;;;16.10;5.07;;;;;;;6.67;56.97;103150.75;4969720;28;20042;-65
2021/12/16 02:04:29;;;;;;;15.02;4.32;;;;;;;7.08;55.37;103161.63;4957669;28;20121;-65
2021/12/16 02:09:29;;;;;;;19.25;5.25;;;;;;;7.11;55.74;103158.22;4976854;28;20473;-66
2021/12/16 02:31:50;;;;;;;23.10;3.92;;;;;;;7.16;55.61;103177.34;4950708;28;20403;-67
2021/12/16 02:36:43;;;;;;;12.68;3.53;;;;;;;6.98;56.14;103171.94;4986236;28;20045;-67
2021/12/16 02:39:14;;;;;;;12.00;3.47;;;;;;;7.13;55.58;103192.91;4975379;28;20033;-68
2021/12/16 02:41:42;;;;;;;12.25;4.03;;;;;;;7.15;55.79;103195.53;4968498;28;20037;-66
2021/12/16 02:49:30;;;;;;;12.73;4.32;;;;;;;7.37;55.14;103196.63;4976878;28;20026;-69
2021/12/16 02:51:57;;;;;;;22.75;4.78;;;;;;;7.22;55.14;103203.44;4992763;28;20030;-68
2021/12/16 02:54:24;;;;;;;11.98;4.03;;;;;;;7.25;55.42;103213.00;4983417;28;20026;-70
2021/12/16 02:56:49;;;;;;;14.82;3.67;;;;;;;7.31;55.56;103208.72;4978630;28;20050;-69
2021/12/16 02:59:18;;;;;;;15.77;4.20;;;;;;;7.24;55.22;103199.09;4977394;28;20046;-69
2021/12/16 03:01:51;;;;;;;15.27;4.20;;;;;;;6.98;56.29;103191.00;4977172;28;20407;-69
2021/12/16 03:04:19;;;;;;;16.65;4.55;;;;;;;7.06;55.72;103191.94;4968874;28;20037;-69
2021/12/16 03:06:50;;;;;;;20.80;3.70;;;;;;;7.04;56.14;103203.19;4992810;28;20712;-69
2021/12/16 03:09:22;;;;;;;12.25;3.75;;;;;;;7.30;55.10;103200.91;4991746;28;20030;-67
2021/12/16 03:12:28;;;;;;;20.20;4.20;;;;;;;7.39;54.99;103201.00;4974976;28;20064;-67
2021/12/16 03:14:49;;;;;;;15.88;4.03;;;;;;;7.36;55.19;103207.91;4975260;28;20310;-69
2021/12/16 03:17:31;;;;;;;17.63;4.25;;;;;;;7.42;55.13;103220.97;4983532;28;20044;-69
2021/12/16 03:36:27;;;;;;;16.00;3.08;;;;;;;7.13;55.63;103203.28;4977272;28;20042;-66
2021/12/16 03:38:57;;;;;;;15.05;4.05;;;;;;;7.51;54.71;103202.84;4992133;28;20053;-66
2021/12/16 03:41:24;;;;;;;22.98;3.90;;;;;;;7.61;54.68;103211.66;4989162;28;20030;-66
2021/12/16 03:43:51;;;;;;;16.52;3.35;;;;;;;7.67;54.29;103216.94;4976474;28;20022;-66
2021/12/16 03:46:27;;;;;;;12.57;3.55;;;;;;;7.65;54.42;103216.06;4976108;28;20049;-66
2021/12/16 03:49:26;;;;;;;13.85;3.67;;;;;;;7.58;54.65;103212.50;4975130;28;20070;-67
2021/12/16 03:52:06;;;;;;;19.65;4.38;;;;;;;7.64;54.23;103225.56;4966790;28;20034;-66
2021/12/16 03:54:41;;;;;;;20.52;3.15;;;;;;;7.38;54.73;103229.59;4987653;28;20029;-66
2021/12/16 03:57:09;;;;;;;12.30;3.70;;;;;;;7.63;54.18;103247.25;4981511;28;20129;-66
2021/12/16 03:59:39;;;;;;;20.45;4.25;;;;;;;7.65;54.27;103235.13;4993118;28;20034;-69
2021/12/16 04:02:38;;;;;;;14.23;4.28;;;;;;;7.39;55.00;103247.81;4974750;28;20046;-69
2021/12/16 04:05:06;;;;;;;16.90;3.97;;;;;;;7.45;55.22;103247.03;4988545;28;20038;-70
2021/12/16 04:07:36;;;;;;;;;;;;;;;7.63;54.25;103247.25;4976443;28;20124;-69
2021/12/16 04:10:33;;;;;;;16.40;3.38;;;;;;;7.71;54.01;103250.81;4976581;28;19964;-69
2021/12/16 04:13:03;;;;;;;15.55;3.65;;;;;;;7.63;54.74;103249.00;4974396;28;20049;-70
2021/12/16 04:15:29;;;;;;;17.88;4.30;;;;;;;7.71;54.00;103248.22;4971575;28;20222;-68
2021/12/16 04:17:55;;;;;;;23.02;4.85;;;;;;;7.69;54.06;103260.34;4962405;28;20125;-68
2021/12/16 04:20:22;;;;;;;18.10;4.45;;;;;;;7.64;54.51;103254.19;4972572;28;20141;-67
2021/12/16 04:22:47;;;;;;;24.00;5.38;;;;;;;7.02;56.12;103246.50;4981617;28;20050;-63
2021/12/16 04:25:41;;;;;;;22.98;3.97;;;;;;;7.30;55.46;103245.13;4989018;28;20036;-63
2021/12/16 04:28:19;;;;;;;15.88;4.70;;;;;;;7.44;54.64;103245.28;4979635;28;20153;-62
2021/12/16 04:30:48;;;;;;;17.90;4.32;;;;;;;7.57;54.98;103251.53;4971228;28;20030;-63
2021/12/16 04:33:14;;;;;;;12.23;3.50;;;;;;;7.60;54.26;103256.75;4973245;28;20038;-63
2021/12/16 04:35:41;;;;;;;21.65;4.63;;;;;;;7.59;54.50;103261.09;4969496;28;20052;-63
2021/12/16 04:38:09;;;;;;;13.15;4.38;;;;;;;7.69;54.16;103267.25;4971829;28;20038;-63
2021/12/16 04:40:36;;;;;;;16.30;4.30;;;;;;;7.60;54.39;103267.16;4984006;28;20056;-63
2021/12/16 04:43:05;;;;;;;9.73;3.00;;;;;;;7.74;54.15;103282.09;4970072;28;20100;-63
2021/12/16 04:45:43;;;;;;;10.45;3.45;;;;;;;7.80;54.23;103283.88;4981673;28;20095;-64
2021/12/16 04:48:09;;;;;;;17.80;4.90;;;;;;;7.76;53.89;103289.03;4962533;28;20151;-64
2021/12/16 04:50:39;;;;;;;17.75;5.60;;;;;;;7.70;54.13;103287.25;4988816;28;20058;-64
2021/12/16 04:53:06;;;;;;;18.63;4.35;;;;;;;7.74;54.34;103292.50;4986398;28;20231;-65
2021/12/16 04:55:36;;;;;;;20.15;5.43;;;;;;;7.79;53.90;103291.69;4979254;28;20091;-66
2021/12/16 04:58:03;;;;;;;18.25;4.35;;;;;;;7.78;53.96;103296.00;4971548;28;20034;-65
2021/12/16 05:00:28;;;;;;;23.65;4.13;;;;;;;7.82;53.96;103304.72;4989388;28;20052;-66
2021/12/16 05:03:11;;;;;;;13.57;4.28;;;;;;;7.90;53.90;103313.47;4973957;28;20235;-66
2021/12/16 05:05:39;;;;;;;20.83;4.40;;;;;;;7.90;53.74;103303.06;4989236;28;20033;-68
2021/12/16 05:08:06;;;;;;;20.58;4.28;;;;;;;7.85;53.90;103304.75;4986036;28;20038;-65
2021/12/16 05:10:39;;;;;;;13.38;3.92;;;;;;;7.92;53.81;103296.16;4963391;28;20079;-66
2021/12/16 05:13:12;;;;;;;16.77;3.38;;;;;;;7.90;53.61;103292.66;4969707;28;20511;-67
2021/12/16 05:15:41;;;;;;;23.60;5.55;;;;;;;7.79;53.92;103289.06;4987203;28;20030;-68
2021/12/16 05:18:11;;;;;;;24.15;4.82;;;;;;;7.66;54.47;103288.94;4975897;28;20137;-69
2021/12/16 05:20:47;;;;;;;26.77;5.15;;;;;;;7.46;55.15;103290.41;4979393;28;20529;-67
2021/12/16 05:28:27;;;;;;;17.00;4.68;;;;;;;7.58;54.53;103294.91;4962897;28;20554;-67
2021/12/16 05:30:54;;;;;;;15.63;4.28;;;;;;;7.46;55.17;103299.06;4973720;28;20037;-67
2021/12/16 05:33:21;;;;;;;22.42;5.35;;;;;;;7.48;54.76;103289.56;4978659;28;20038;-67
2021/12/16 05:35:48;;;;;;;25.65;5.00;;;;;;;7.44;54.79;103300.78;4983376;28;20026;-66
2021/12/16 05:38:15;;;;;;;33.00;6.00;;;;;;;7.15;55.95;103310.81;4973065;28;20034;-67
2021/12/16 05:40:41;;;;;;;28.77;6.45;;;;;;;7.23;55.85;103306.59;4973227;28;20058;-67
2021/12/16 05:43:24;;;;;;;29.42;5.50;;;;;;;7.32;55.14;103308.44;4986446;28;20038;-67
2021/12/16 05:45:52;;;;;;;35.05;5.78;;;;;;;7.47;55.15;103316.44;4978144;28;20463;-67
2021/12/16 05:48:22;;;;;;;20.50;4.55;;;;;;;7.57;54.87;103319.19;4986534;28;20042;-67
2021/12/16 05:50:51;;;;;;;16.20;4.63;;;;;;;7.55;54.88;103332.19;4971162;28;20038;-67
2021/12/16 05:53:19;;;;;;;26.75;6.45;;;;;;;7.46;55.14;103342.44;4972733;28;20540;-67
2021/12/16 05:55:46;;;;;;;17.33;4.70;;;;;;;7.56;54.49;103340.84;4975892;28;20505;-66
2021/12/16 05:58:33;;;;;;;19.08;6.10;;;;;;;7.42;55.33;103345.84;4983248;28;20492;-66
2021/12/16 06:01:03;;;;;;;23.15;6.57;;;;;;;7.49;54.92;103350.31;4971873;28;20105;-66
2021/12/16 06:03:34;;;;;;;25.17;6.40;;;;;;;7.52;54.82;103351.19;4986005;28;20041;-67
2021/12/16 06:06:02;;;;;;;17.02;5.50;;;;;;;7.65;54.44;103354.88;4962851;28;20030;-67
2021/12/16 06:08:28;;;;;;;28.05;6.90;;;;;;;7.65;54.64;103359.22;4972420;28;20117;-66
2021/12/16 06:13:36;;;;;;;24.40;5.47;;;;;;;7.56;54.89;103365.19;4987975;28;20136;-67
2021/12/16 06:29:25;;;;;;;20.13;5.05;;;;;;;7.61;54.81;103381.72;4987491;28;20061;-66
2021/12/16 06:31:52;;;;;;;21.80;6.63;;;;;;;7.28;55.91;103388.19;4985192;28;20045;-66
2021/12/16 06:34:18;;;;;;;25.40;7.10;;;;;;;6.90;56.62;103393.69;4984826;28;20049;-66
2021/12/16 06:36:44;;;;;;;22.55;6.35;;;;;;;7.24;56.01;103391.56;4984393;28;20101;-66
2021/12/16 06:39:10;;;;;;;25.27;5.50;;;;;;;6.98;56.51;103390.34;4978797;28;20060;-66
2021/12/16 06:41:39;;;;;;;25.38;7.10;;;;;;;6.88;56.95;103394.50;4972023;28;20061;-66
2021/12/16 06:44:14;;;;;;;21.88;5.45;;;;;;;6.69;57.78;103393.34;4983851;28;20127;-66
2021/12/16 06:46:43;;;;;;;21.15;5.63;;;;;;;6.90;56.81;103392.81;4986509;28;20065;-66
2021/12/16 06:49:11;;;;;;;24.40;5.30;;;;;;;7.14;56.44;103404.47;4985151;28;20462;-66
2021/12/16 06:52:13;;;;;;;24.75;6.45;;;;;;;7.41;55.50;103417.84;4987314;28;20161;-67
2021/12/16 06:54:35;;;;;;;14.82;4.97;;;;;;;7.50;55.26;103417.09;4983304;28;20100;-66
2021/12/16 06:59:33;;;;;;;17.52;5.20;;;;;;;7.61;54.70;103432.91;4971135;28;20042;-67
2021/12/16 07:04:28;;;;;;;21.65;5.03;;;;;;;7.27;55.39;103425.47;4986596;28;20046;-67
2021/12/16 07:06:55;;;;;;;21.98;5.97;;;;;;;7.30;55.09;103417.69;4983118;28;20583;-67
2021/12/16 07:09:21;;;;;;;20.63;5.80;;;;;;;7.49;55.19;103423.19;4986047;28;20034;-67
2021/12/16 07:11:52;;;;;;;7.78;3.90;;;;;;;7.45;55.08;103419.66;4986527;28;20069;-66
2021/12/16 07:14:22;;;;;;;17.60;5.95;;;;;;;7.16;55.88;103420.97;4970631;28;20180;-67
2021/12/16 07:16:54;;;;;;;12.32;4.30;;;;;;;7.48;54.88;103417.06;4984828;28;20506;-67
2021/12/16 07:19:19;;;;;;;15.40;5.65;;;;;;;7.60;54.85;103429.44;4985256;28;20065;-66
2021/12/16 07:21:45;;;;;;;16.55;5.20;;;;;;;7.63;55.01;103424.25;4984948;28;20105;-66
2021/12/16 07:24:15;;;;;;;18.10;5.28;;;;;;;7.49;54.91;103425.78;4986241;28;20121;-66
2021/12/16 07:26:41;;;;;;;20.33;6.78;;;;;;;7.58;54.97;103425.94;4986634;28;20044;-66
2021/12/16 07:29:09;;;;;;;17.25;5.60;;;;;;;7.36;55.64;103439.47;4985576;28;20046;-66
2021/12/16 07:31:36;;;;;;;16.77;5.80;;;;;;;7.40;55.53;103441.22;4985686;28;20558;-66
2021/12/16 07:34:03;;;;;;;22.75;5.57;;;;;;;7.62;55.06;103445.03;4987075;28;20056;-66
2021/12/16 07:36:30;;;;;;;19.02;5.55;;;;;;;7.71;54.55;103447.78;4986923;28;20483;-66
2021/12/16 07:38:56;;;;;;;21.45;6.15;;;;;;;7.52;55.11;103463.09;4973919;28;20037;-66
2021/12/16 07:41:25;;;;;;;26.05;5.38;;;;;;;7.72;54.54;103460.81;4987279;28;20403;-65
2021/12/16 07:44:09;;;;;;;18.38;7.22;;;;;;;7.71;54.61;103472.09;4988742;28;20058;-66
2021/12/16 07:46:50;;;;;;;31.08;5.97;;;;;;;7.72;54.75;103471.22;4961225;28;20549;-66
2021/12/16 07:49:21;;;;;;;31.27;5.40;;;;;;;7.84;54.43;103474.84;4974874;28;20455;-66
2021/12/16 07:51:47;;;;;;;16.93;6.53;;;;;;;7.86;54.35;103478.34;4963072;28;20044;-65
2021/12/16 07:54:14;;;;;;;20.27;5.57;;;;;;;7.95;54.24;103481.06;4988546;28;20506;-66
2021/12/16 07:56:41;;;;;;;23.23;5.82;;;;;;;7.91;54.42;103479.28;4987638;28;20497;-66
2021/12/16 07:59:08;;;;;;;24.70;7.10;;;;;;;7.92;54.31;103484.50;4970194;28;20168;-66
2021/12/16 08:01:38;;;;;;;21.00;5.50;;;;;;;7.91;54.31;103474.06;4962286;28;20486;-66
2021/12/16 08:04:04;;;;;;;33.63;8.40;;;;;;;7.73;55.08;103474.69;4988787;28;20018;-66
2021/12/16 08:06:31;;;;;;;30.35;6.82;;;;;;;7.86;54.37;103486.16;4986326;28;20053;-66
2021/12/16 08:09:06;;;;;;;27.73;6.65;;;;;;;7.97;54.32;103487.16;4971678;28;20073;-65
2021/12/16 08:11:34;;;;;;;24.83;7.18;;;;;;;7.88;54.49;103487.06;4980750;28;20025;-66
2021/12/16 08:14:02;;;;;;;34.63;7.68;;;;;;;8.03;54.71;103491.59;4989151;28;20038;-66
2021/12/16 08:16:28;;;;;;;31.00;6.68;;;;;;;8.11;54.59;103500.38;4987956;28;20038;-65
2021/12/16 08:18:54;;;;;;;24.00;7.78;;;;;;;8.13;54.35;103501.25;4989938;28;20029;-65
2021/12/16 08:21:23;;;;;;;29.02;8.15;;;;;;;8.12;54.34;103505.59;4989506;28;20030;-64
2021/12/16 08:23:50;;;;;;;20.60;7.25;;;;;;;8.26;54.19;103507.50;4989688;28;20046;-65
2021/12/16 08:26:19;;;;;;;35.50;8.23;;;;;;;8.23;54.28;103517.91;4970814;28;20033;-66
2021/12/16 08:28:45;;;;;;;29.48;6.43;;;;;;;8.23;54.63;103520.50;4978048;28;20090;-65
2021/12/16 08:31:11;;;;;;;28.02;6.88;;;;;;;8.28;54.29;103518.81;4988284;28;20100;-66
2021/12/16 08:33:38;;;;;;;29.67;8.10;;;;;;;8.32;54.28;103521.47;4989290;28;20506;-67
2021/12/16 08:36:06;;;;;;;32.00;7.03;;;;;;;8.28;53.93;103526.63;4964409;28;20023;-65
2021/12/16 08:38:33;;;;;;;21.38;5.70;;;;;;;8.35;54.07;103531.91;4970263;28;20395;-64
2021/12/16 08:41:02;;;;;;;27.15;6.53;;;;;;;8.40;54.03;103533.72;4981948;28;20081;-65
2021/12/16 08:43:28;;;;;;;28.92;9.05;;;;;;;8.32;54.00;103542.31;4986257;28;20366;-66
2021/12/16 08:45:55;;;;;;;27.10;7.28;;;;;;;8.29;54.23;103544.00;4986834;28;20499;-65
2021/12/16 08:48:22;;;;;;;26.75;7.53;;;;;;;8.32;54.12;103549.28;4988457;28;20329;-65
2021/12/16 08:50:50;;;;;;;31.85;7.70;;;;;;;8.27;54.36;103549.22;4986917;28;20124;-65
2021/12/16 08:53:20;;;;;;;33.60;9.57;;;;;;;8.32;54.40;103554.47;4984902;28;20193;-66
2021/12/16 08:55:49;;;;;;;38.53;11.43;;;;;;;8.35;54.28;103564.94;4987933;28;20737;-66
2021/12/16 08:58:14;;;;;;;27.88;8.07;;;;;;;8.40;54.27;103570.19;4975203;28;20141;-66
2021/12/16 09:00:48;;;;;;;33.33;6.75;;;;;;;8.30;54.34;103572.69;4985359;28;20107;-66
2021/12/16 09:03:14;;;;;;;33.58;8.10;;;;;;;8.44;54.38;103585.03;4982038;28;20042;-67
2021/12/16 09:05:40;;;;;;;43.00;7.97;;;;;;;8.40;54.12;103576.28;4983637;28;20400;-68
2021/12/16 09:08:06;;;;;;;37.28;8.95;;;;;;;8.01;55.04;103581.88;4971107;28;20034;-66
2021/12/16 09:10:35;;;;;;;47.13;8.40;;;;;;;8.28;54.86;103576.13;4965503;28;20026;-65
2021/12/16 09:13:07;;;;;;;41.28;8.48;;;;;;;8.31;54.88;103581.38;4986760;28;20145;-66
2021/12/16 09:15:46;;;;;;;40.60;9.50;;;;;;;8.43;54.76;103585.91;4984148;28;20042;-65
2021/12/16 09:18:15;;;;;;;35.35;7.05;;;;;;;8.43;54.98;103586.75;4983067;28;20038;-67
2021/12/16 09:20:40;;;;;;;38.58;6.22;;;;;;;8.41;54.50;103582.41;4983288;28;20510;-67
2021/12/16 09:23:08;;;;;;;47.42;9.63;;;;;;;8.48;54.52;103574.66;4982352;28;20042;-67
2021/12/16 09:25:34;;;;;;;34.42;8.15;;;;;;;8.43;54.78;103581.56;4985112;28;20157;-65
2021/12/16 09:28:00;;;;;;;39.22;7.82;;;;;;;8.38;54.92;103578.00;4985336;28;20586;-67
2021/12/16 09:30:30;;;;;;;37.47;7.43;;;;;;;8.32;55.17;103593.56;4986855;28;20051;-67
2021/12/16 09:32:59;;;;;;;54.10;9.18;;;;;;;8.41;55.08;103588.47;4985566;28;20061;-65
2021/12/16 09:35:25;;;;;;;40.70;7.13;;;;;;;8.38;55.18;103588.41;4982542;28;20466;-66
2021/12/16 09:37:51;;;;;;;35.88;7.05;;;;;;;8.67;54.83;103595.72;4933299;28;20050;-66
2021/12/16 09:40:21;;;;;;;35.42;8.27;;;;;;;8.55;55.09;103594.72;4968723;28;20154;-66
2021/12/16 09:42:48;;;;;;;50.83;7.93;;;;;;;8.34;55.15;103597.06;4967510;28;20038;-67
2021/12/16 09:45:15;;;;;;;35.13;7.07;;;;;;;8.24;55.25;103595.19;4982914;28;20030;-66
2021/12/16 09:47:43;;;;;;;34.58;8.27;;;;;;;8.26;55.76;103603.91;4983529;28;20113;-66
2021/12/16 09:50:10;;;;;;;39.97;8.13;;;;;;;8.42;55.71;103603.25;4984972;28;20040;-66
2021/12/16 09:52:36;;;;;;;49.05;9.23;;;;;;;8.66;55.05;103601.81;4983915;28;20111;-66
2021/12/16 09:55:03;;;;;;;37.30;8.50;;;;;;;8.65;55.25;103600.03;4986170;28;20550;-66
2021/12/16 09:57:31;;;;;;;60.17;9.48;;;;;;;8.60;55.09;103614.75;4982447;28;20046;-66
2021/12/16 09:59:56;;;;;;;23.92;7.75;;;;;;;8.18;55.99;103615.94;4985134;28;20038;-66
2021/12/16 10:02:22;;;;;;;46.58;10.20;;;;;;;8.58;55.00;103625.16;4974142;28;20073;-66
2021/12/16 10:04:48;;;;;;;57.97;8.13;;;;;;;8.56;54.72;103617.34;4971413;28;20122;-66
2021/12/16 10:07:24;;;;;;;53.90;9.52;;;;;;;8.56;55.11;103617.34;4971453;28;20042;-65
2021/12/16 10:09:54;;;;;;;44.72;8.07;;;;;;;8.72;55.06;103630.59;4986759;28;20038;-65
2021/12/16 10:12:24;;;;;;;28.33;7.07;;;;;;;8.79;54.80;103627.19;4986810;28;20137;-65
2021/12/16 10:17:28;;;;;;;46.35;8.07;;;;;;;8.98;54.55;103634.38;4985070;28;20046;-66
2021/12/16 10:19:56;;;;;;;51.92;10.20;;;;;;;8.83;54.26;103639.41;4955503;28;20119;-66
2021/12/16 10:22:34;;;;;;;33.88;6.63;;;;;;;8.78;54.27;103633.25;4986075;28;20034;-65
2021/12/16 10:25:23;;;;;;;40.08;7.28;;;;;;;8.91;54.53;103635.13;4984212;28;20034;-67
2021/12/16 10:27:58;;;;;;;44.80;7.55;;;;;;;8.83;54.52;103634.19;4986146;28;20703;-66
2021/12/16 10:30:26;;;;;;;31.13;8.10;;;;;;;8.92;54.90;103633.44;4984557;28;20038;-66
2021/12/16 10:32:53;;;;;;;30.17;6.95;;;;;;;9.13;54.65;103640.59;4985303;28;20038;-67
2021/12/16 10:35:19;;;;;;;23.48;6.43;;;;;;;9.12;54.59;103639.72;4984921;28;20125;-67
2021/12/16 10:38:02;;;;;;;33.38;6.10;;;;;;;9.26;54.54;103650.31;4947433;28;20125;-67
2021/12/16 10:40:36;;;;;;;28.88;7.80;;;;;;;9.26;53.83;103655.53;4983243;28;20741;-68
2021/12/16 10:43:06;;;;;;;35.47;6.95;;;;;;;9.27;54.08;103656.38;4984490;28;20116;-65
2021/12/16 10:45:40;;;;;;;28.83;5.57;;;;;;;9.07;53.98;103643.13;4984625;28;20112;-65
2021/12/16 10:48:20;;;;;;;29.20;6.05;;;;;;;9.13;54.07;103649.28;4986914;28;20038;-65
2021/12/16 10:50:54;;;;;;;29.10;6.60;;;;;;;9.27;54.15;103646.81;4984971;28;20148;-65
2021/12/16 10:53:54;;;;;;;23.48;5.20;;;;;;;9.02;54.61;103650.06;4972275;28;20063;-65
2021/12/16 10:56:25;;;;;;;27.98;6.57;;;;;;;8.97;54.37;103643.03;4984514;28;20030;-66
2021/12/16 10:58:55;;;;;;;30.33;5.83;;;;;;;9.25;53.97;103645.94;4965937;28;20050;-66
2021/12/16 11:01:51;;;;;;;32.72;7.38;;;;;;;9.30;54.01;103659.91;4985777;28;20328;-66
2021/12/16 11:04:22;;;;;;;31.02;5.50;;;;;;;9.24;53.73;103654.63;4984538;28;20491;-66
2021/12/16 11:06:49;;;;;;;18.65;5.38;;;;;;;9.39;54.05;103654.78;4984798;28;20034;-67
2021/12/16 11:09:31;;;;;;;18.23;5.32;;;;;;;9.50;53.67;103653.97;4985784;28;20130;-67
2021/12/16 11:12:20;;;;;;;;;;;;;;;9.40;53.66;103646.06;4988190;28;20063;-66
2021/12/16 11:15:11;;;;;;;33.22;5.85;;;;;;;9.51;53.48;103645.31;4989974;28;20015;-67
2021/12/16 11:17:39;;;;;;;36.85;6.40;;;;;;;9.37;53.81;103640.84;4977135;28;20112;-66
2021/12/16 11:20:28;;;;;;;38.22;7.28;;;;;;;9.58;53.41;103640.13;4990987;28;20038;-67
2021/12/16 11:23:04;;;;;;;24.38;6.28;;;;;;;9.40;52.90;103638.25;4988956;28;20042;-66
2021/12/16 11:25:39;;;;;;;32.47;6.15;;;;;;;9.09;53.18;103630.97;4988378;28;20057;-66
2021/12/16 11:28:11;;;;;;;22.10;6.07;;;;;;;9.06;53.91;103624.00;4991013;28;20057;-67
2021/12/16 11:30:48;;;;;;;33.92;8.38;;;;;;;9.09;54.21;103625.75;4990865;28;20483;-66
2021/12/16 11:33:19;;;;;;;26.90;7.22;;;;;;;9.13;53.88;103627.56;4988792;28;20041;-66
2021/12/16 11:35:57;;;;;;;25.30;7.28;;;;;;;9.20;53.74;103629.34;4989498;28;20042;-66
2021/12/16 11:38:40;;;;;;;31.60;8.35;;;;;;;9.40;52.94;103622.59;4988818;28;20527;-66
2021/12/16 11:41:36;;;;;;;23.77;7.40;;;;;;;9.39;53.01;103631.28;4993506;28;20418;-66
2021/12/16 11:44:10;;;;;;;38.95;8.13;;;;;;;9.23;53.66;103629.41;4986888;28;20142;-66
2021/12/16 11:46:47;;;;;;;22.10;6.45;;;;;;;9.31;53.22;103632.94;4989839;28;20038;-66
2021/12/16 11:49:15;;;;;;;16.20;4.78;;;;;;;9.25;53.36;103625.03;4989360;28;20495;-65
2021/12/16 11:51:50;;;;;;;31.30;6.25;;;;;;;9.02;54.16;103623.97;4977244;28;20129;-66
2021/12/16 11:54:24;;;;;;;20.33;6.28;;;;;;;9.28;53.37;103632.94;4988157;28;20041;-66
2021/12/16 11:56:58;;;;;;;22.00;6.63;;;;;;;9.22;53.33;103635.47;4979177;28;20046;-66
2021/12/16 11:59:36;;;;;;;18.67;6.10;;;;;;;9.43;53.10;103631.31;4990086;28;20042;-66
2021/12/16 12:02:03;;;;;;;18.35;5.57;;;;;;;9.18;53.33;103631.06;4988444;28;20558;-67
2021/12/16 12:04:33;;;;;;;18.77;5.90;;;;;;;8.91;54.20;103629.94;4990084;28;20073;-66
2021/12/16 12:06:59;;;;;;;10.15;3.20;;;;;;;9.04;53.43;103630.06;4989113;28;20038;-66
2021/12/16 12:09:38;;;;;;;10.82;3.33;;;;;;;9.03;53.22;103626.59;4973794;28;20091;-66
2021/12/16 12:12:04;;;;;;;10.82;3.25;;;;;;;8.88;53.90;103627.28;4987579;28;20041;-66
2021/12/16 12:14:33;;;;;;;10.23;2.20;;;;;;;9.32;52.74;103620.75;4980281;28;20562;-66
2021/12/16 12:17:05;;;;;;;3.53;0.90;;;;;;;8.85;52.96;103622.06;4986784;28;20598;-66
2021/12/16 12:19:31;;;;;;;1.88;0.63;;;;;;;9.16;52.46;103627.56;4989472;28;20034;-66
2021/12/16 12:22:00;;;;;;;1.92;0.60;;;;;;;8.73;52.98;103627.13;4970748;28;20041;-66
2021/12/16 12:24:33;;;;;;;3.85;0.50;;;;;;;8.66;52.89;103635.69;4974261;28;20034;-66
2021/12/16 12:27:11;;;;;;;4.25;1.23;;;;;;;8.61;53.10;103627.81;4986736;28;20522;-66
2021/12/16 12:29:51;;;;;;;5.30;0.98;;;;;;;8.53;54.16;103632.91;4989061;28;20049;-66
2021/12/16 12:32:24;;;;;;;6.10;3.72;;;;;;;8.90;53.03;103642.97;4987716;28;20408;-67
2021/12/16 12:34:57;;;;;;;4.43;2.35;;;;;;;8.94;52.83;103648.25;4985822;28;20030;-66
2021/12/16 12:37:25;;;;;;;2.67;1.08;;;;;;;8.85;53.06;103655.97;4977568;28;20416;-66
2021/12/16 12:39:54;;;;;;;4.35;1.00;;;;;;;8.81;52.71;103655.88;4988870;28;20403;-66
2021/12/16 12:42:20;;;;;;;3.40;0.98;;;;;;;8.95;52.81;103649.09;4989002;28;20038;-65
2021/12/16 12:44:47;;;;;;;7.70;1.52;;;;;;;8.92;52.67;103655.16;4988468;28;20030;-67
2021/12/16 12:47:21;;;;;;;3.03;0.93;;;;;;;8.71;53.56;103650.56;4988629;28;20042;-67
2021/12/16 12:49:48;;;;;;;1.77;0.82;;;;;;;8.71;52.95;103654.91;4988742;28;20499;-67
2021/12/16 12:52:22;;;;;;;1.58;0.90;;;;;;;8.52;53.82;103652.03;4985530;28;21396;-65
2021/12/16 12:55:02;;;;;;;2.85;0.80;;;;;;;8.90;53.17;103656.88;4987852;28;20077;-67
2021/12/16 12:57:31;;;;;;;2.03;0.57;;;;;;;8.97;52.62;103655.22;4969972;28;20064;-66
2021/12/16 12:59:58;;;;;;;1.75;0.60;;;;;;;8.53;53.46;103653.78;4965001;28;20034;-65
2021/12/16 13:02:29;;;;;;;2.08;0.73;;;;;;;8.72;53.34;103657.53;4986402;28;20046;-66
2021/12/16 13:04:59;;;;;;;3.25;0.88;;;;;;;8.62;53.24;103657.38;4988762;28;20109;-66
2021/12/16 13:07:40;;;;;;;3.40;0.80;;;;;;;8.81;52.97;103664.59;4987750;28;20138;-66
2021/12/16 13:10:12;;;;;;;5.25;1.67;;;;;;;9.01;52.28;103658.72;4967284;28;20040;-66
2021/12/16 13:12:47;;;;;;;2.92;1.02;;;;;;;8.90;52.79;103658.63;4984970;28;20046;-66
2021/12/16 13:26:49;;;;;;;3.70;1.30;;;;;;;8.80;53.41;103670.66;4986006;28;20043;-66
2021/12/16 13:29:39;;;;;;;4.22;1.60;;;;;;;8.73;52.93;103676.66;4988421;28;20117;-66
2021/12/16 13:32:14;;;;;;;4.05;1.42;;;;;;;8.77;53.11;103676.72;4989905;28;20041;-66
2021/12/16 13:34:58;;;;;;;3.95;1.60;;;;;;;8.82;52.72;103678.50;4970206;28;20061;-66
2021/12/16 13:37:35;;;;;;;4.38;2.60;;;;;;;8.65;53.52;103675.66;4985291;28;20038;-66
2021/12/16 13:40:07;;;;;;;5.15;2.38;;;;;;;8.48;53.70;103678.91;4990147;28;20061;-65
2021/12/16 13:43:14;;;;;;;9.70;2.72;;;;;;;8.47;53.67;103681.50;4985793;28;20046;-67
2021/12/16 13:45:54;;;;;;;7.60;2.47;;;;;;;8.60;53.25;103686.00;4986242;28;20112;-66
2021/12/16 14:05:04;;;;;;;11.57;6.82;;;;;;;8.67;53.03;103700.91;4987152;28;20120;-66
2021/12/16 14:08:06;;;;;;;6.50;2.88;;;;;;;8.55;53.64;103701.59;4970207;28;20497;-66
2021/12/16 14:10:47;;;;;;;6.18;2.35;;;;;;;8.59;53.47;103706.88;4984261;28;20073;-66
2021/12/16 14:16:19;;;;;;;5.15;2.83;;;;;;;8.81;52.99;103721.06;4986171;28;20092;-66
2021/12/16 14:39:47;;;;;;;3.90;1.42;;;;;;;8.28;53.95;103750.72;4983601;28;20041;-66
2021/12/16 14:48:22;;;;;;;4.90;1.25;;;;;;;8.24;54.48;103743.72;4961255;28;20046;-66
2021/12/16 14:50:53;;;;;;;4.75;1.98;;;;;;;8.15;54.02;103753.13;4985463;28;20503;-66
2021/12/16 14:53:34;;;;;;;2.83;1.02;;;;;;;8.18;53.92;103762.72;4983016;28;20145;-66
2021/12/16 14:56:02;;;;;;;3.50;2.93;;;;;;;8.22;54.18;103759.31;4985078;28;20045;-66
2021/12/16 14:58:28;;;;;;;1.98;1.15;;;;;;;8.09;54.31;103766.06;4982276;28;20281;-66
2021/12/16 15:01:02;;;;;;;3.15;1.83;;;;;;;8.03;54.34;103772.91;4970235;28;20045;-66
2021/12/16 15:03:34;;;;;;;5.50;1.25;;;;;;;8.07;54.25;103759.06;4982470;28;20085;-66
2021/12/16 15:06:04;;;;;;;2.10;1.10;;;;;;;7.95;54.64;103757.13;4975505;28;20034;-67
2021/12/16 15:11:07;;;;;;;17.52;11.90;;;;;;;8.02;54.60;103769.41;4982314;28;20145;-67
2021/12/16 15:13:51;;;;;;;11.05;6.50;;;;;;;8.04;54.35;103769.44;4983192;28;20530;-68
2021/12/16 15:16:38;;;;;;;11.32;4.75;;;;;;;8.06;54.32;103773.81;4974848;28;20493;-67
2021/12/16 15:36:39;;;;;;;5.22;2.60;;;;;;;8.03;54.60;103794.63;4980306;28;22478;-67
2021/12/16 15:39:25;;;;;;;6.65;2.85;;;;;;;8.03;54.57;103793.75;4984783;28;20057;-68